Glenwood City, WI (54013)

11:49 AM CST on January 30, 2015 (GMT -0600)
KWIEMERA2 | Change Station
CLOSE
Current Station
Personal Weather Station
Location: Emerald, WI
Elevation: 1197 ft
Nearby Weather Stations

Elev 1197 ft 45.10 °N, 92.26 °W | Updated 1 second ago

Overcast
Overcast
13.2 °F
Feels Like 13 °F
N
3.0
Wind Variable Wind from SSW
Gusts 8.0 mph

Today
High -- | Low -- °F
--% Chance of Precip.
Yesterday
High -- | Low -- °F
Precip. -- in
7:31 AM 5:13 PM
Waxing Gibbous, 84% visible
Pressure 30.48 in
Visibility 10.0 miles
Clouds Mostly Cloudy 9500 ft
Mostly Cloudy 12000 ft
Windchill 13 °F
Dew Point 5 °F
Humidity 68%
Rainfall 0.00 in
Snow Depth Not available.
UV 1 out of 12
Pollen .10 out of 12
Air Quality Not available.
Flu Activity Not available.
METAR KRNH 301735Z AUTO 22005KT 10SM BKN095 BKN120 M10/M15 A3048 RMK AO2 T10991149

More Conditions Fewer Conditions

Pressure 30.48 in
Visibility 10.0 miles
Clouds Mostly Cloudy 9500 ft
Mostly Cloudy 12000 ft
Windchill 13 °F
Dew Point 5 °F
Humidity 68%
Rainfall 0.00 in
Snow Depth Not available.
UV 1 out of 12
Pollen .10 out of 12
Air Quality Not available.
Flu Activity Not available.
METAR KRNH 301735Z AUTO 22005KT 10SM BKN095 BKN120 M10/M15 A3048 RMK AO2 T10991149

More Conditions Fewer Conditions

10-Day Weather Forecast

Almanac

Astronomy

Jan. 30, 2015 Rise Set
Actual Time
Civil Twilight
Nautical Twilight
Astronomical Twilight
Moon
Length of Visible Light
Length of Day
Tomorrow will be .
, % of the Moon is Illuminated

Today's Extremes

State Highs State Lows

Community

WunderPhotos

Upload Photos

1,791,835 photos uploaded!

WunderBlogs® & News

Nearby

Air Quality

  Air Quality AQ Index Pollutant
Not available.

Snow Depth

Station Depth Elevation

Earthquake Activity

City Distance Mag. Time & Date
Minimum magnitude displayed is 2.5.

Coastal Water Temperatures

Place Temperature

Nearby Weather Stations